createdAt,value
2018-10-21T00:01:35.727Z,10.30
2018-10-21T00:06:32.537Z,11.47
2018-10-21T00:11:29.281Z,10.27
2018-10-21T00:16:27.198Z,10.37
2018-10-21T00:21:23.978Z,10.47
2018-10-21T00:26:20.741Z,10.30
2018-10-21T00:31:17.513Z,10.13
2018-10-21T00:36:14.669Z,9.80
2018-10-21T00:41:11.710Z,11.27
2018-10-21T00:46:08.424Z,10.53
2018-10-21T00:51:05.207Z,11.07
2018-10-21T00:56:03.201Z,10.80
2018-10-21T01:00:59.959Z,11.00
2018-10-21T01:05:56.877Z,10.63
2018-10-21T01:10:53.588Z,10.60
2018-10-21T01:15:50.343Z,11.27
2018-10-21T01:20:47.131Z,10.70
2018-10-21T01:25:43.858Z,11.23
2018-10-21T01:30:40.692Z,11.27
2018-10-21T01:35:37.418Z,10.63
2018-10-21T01:40:35.591Z,10.03
2018-10-21T01:45:32.358Z,10.37
2018-10-21T01:50:29.123Z,10.07
2018-10-21T01:55:26.212Z,10.23
2018-10-21T02:00:26.757Z,10.13
2018-10-21T02:05:23.983Z,10.50
2018-10-21T02:10:20.785Z,10.33
2018-10-21T02:15:17.624Z,9.80
2018-10-21T02:20:15.221Z,10.80
2018-10-21T02:25:12.232Z,9.70
2018-10-21T02:30:11.270Z,10.20
2018-10-21T02:35:09.048Z,10.10
2018-10-21T02:40:06.485Z,10.40
2018-10-21T02:45:03.579Z,10.20
2018-10-21T02:50:00.308Z,10.47
2018-10-21T02:54:57.095Z,11.20
2018-10-21T02:59:55.127Z,10.40
2018-10-21T03:04:51.913Z,10.67
2018-10-21T03:09:48.809Z,10.57
2018-10-21T03:14:45.516Z,10.50
2018-10-21T03:19:42.293Z,9.77
2018-10-21T03:24:39.099Z,11.07
2018-10-21T03:29:35.888Z,10.37
2018-10-21T03:34:32.671Z,10.67
2018-10-21T03:39:29.466Z,10.40
2018-10-21T03:44:26.237Z,10.83
2018-10-21T03:49:22.984Z,10.10
2018-10-21T03:54:19.754Z,10.03
2018-10-21T03:59:16.549Z,11.00
2018-10-21T04:04:13.375Z,11.17
2018-10-21T04:09:10.983Z,10.60
2018-10-21T04:14:07.665Z,11.37
2018-10-21T04:19:10.223Z,10.03
2018-10-21T04:24:06.957Z,10.60
2018-10-21T04:29:05.185Z,11.23
2018-10-21T04:34:02.014Z,10.80
2018-10-21T04:39:30.124Z,10.87
2018-10-21T04:44:26.806Z,11.63
2018-10-21T04:49:24.946Z,11.20
2018-10-21T04:54:21.853Z,11.57
2018-10-21T04:59:18.536Z,11.63
2018-10-21T05:04:16.162Z,11.43
2018-10-21T05:09:13.110Z,11.00
2018-10-21T05:14:09.836Z,10.60
2018-10-21T05:19:06.496Z,10.80
2018-10-21T05:24:03.368Z,10.80
2018-10-21T05:29:00.051Z,10.43
2018-10-21T05:33:56.929Z,10.83
2018-10-21T05:38:53.618Z,10.43
2018-10-21T05:43:50.276Z,10.40
2018-10-21T05:48:47.040Z,9.93
2018-10-21T05:53:43.760Z,10.10
2018-10-21T05:58:40.522Z,10.63
2018-10-21T06:03:37.204Z,10.63
2018-10-21T06:08:34.144Z,10.13
2018-10-21T06:13:30.847Z,10.57
2018-10-21T06:18:28.641Z,11.30
2018-10-21T06:23:25.594Z,13.13
2018-10-21T06:28:22.956Z,11.27
2018-10-21T06:33:19.818Z,11.77
2018-10-21T06:38:16.830Z,11.63
2018-10-21T06:43:13.586Z,12.00
2018-10-21T06:48:10.267Z,11.33
2018-10-21T06:53:07.088Z,11.40
2018-10-21T06:58:03.949Z,10.87
2018-10-21T07:03:00.721Z,10.90
2018-10-21T07:07:57.606Z,10.57
2018-10-21T07:12:54.295Z,11.03
2018-10-21T07:17:51.164Z,11.57
2018-10-21T07:22:47.989Z,12.27
2018-10-21T07:27:44.764Z,12.90
2018-10-21T07:32:42.615Z,14.00
2018-10-21T07:37:39.887Z,13.40
2018-10-21T07:42:36.656Z,14.23
2018-10-21T07:47:33.449Z,17.17
2018-10-21T07:52:30.182Z,14.20
2018-10-21T07:57:27.009Z,15.03
2018-10-21T08:02:23.753Z,15.70
2018-10-21T08:07:26.328Z,15.07
2018-10-21T08:12:23.050Z,14.87
2018-10-21T08:17:19.815Z,14.33
2018-10-21T08:22:16.664Z,13.78
2018-10-21T08:27:13.249Z,14.47
2018-10-21T08:32:10.064Z,14.18
2018-10-21T08:37:06.833Z,14.15
2018-10-21T08:42:03.571Z,14.47
2018-10-21T08:47:00.359Z,14.73
2018-10-21T08:51:57.476Z,14.40
2018-10-21T08:56:54.284Z,13.98
2018-10-21T09:01:52.820Z,13.60
2018-10-21T09:06:49.499Z,12.68
2018-10-21T09:11:46.286Z,13.98
2018-10-21T09:16:43.022Z,12.73
2018-10-21T09:21:39.645Z,13.25
2018-10-21T09:26:36.913Z,13.80
2018-10-21T09:31:33.726Z,13.25
2018-10-21T09:36:30.552Z,12.73
2018-10-21T09:41:27.868Z,12.47
2018-10-21T09:46:24.830Z,17.82
2018-10-21T09:51:21.702Z,12.63
2018-10-21T09:56:18.504Z,11.85
2018-10-21T10:01:20.821Z,11.50
2018-10-21T10:06:18.669Z,10.48
2018-10-21T10:11:15.882Z,10.70
2018-10-21T10:16:12.640Z,10.20
2018-10-21T10:21:09.387Z,11.55
2018-10-21T10:26:06.131Z,10.30
2018-10-21T10:31:02.953Z,10.28
2018-10-21T10:35:59.980Z,10.00
2018-10-21T10:40:57.009Z,14.03
2018-10-21T10:45:53.745Z,12.05
2018-10-21T10:50:50.801Z,12.85
2018-10-21T10:55:51.691Z,11.33
2018-10-21T11:00:48.535Z,12.18
2018-10-21T11:05:45.310Z,10.88
2018-10-21T11:10:42.121Z,10.93
2018-10-21T11:15:38.835Z,12.20
2018-10-21T11:20:35.579Z,12.60
2018-10-21T11:25:32.329Z,8.13
2018-10-21T11:30:29.034Z,8.00
2018-10-21T11:35:25.770Z,7.23
2018-10-21T11:40:22.516Z,7.67
2018-10-21T11:45:19.275Z,8.08
2018-10-21T11:50:16.041Z,8.20
2018-10-21T11:55:12.927Z,7.55
2018-10-21T12:00:10.022Z,8.10
2018-10-21T12:05:06.922Z,7.78
2018-10-21T12:10:03.994Z,7.17
2018-10-21T12:15:00.768Z,6.55
2018-10-21T12:19:57.601Z,6.50
2018-10-21T12:24:54.393Z,6.20
2018-10-21T12:29:51.090Z,6.42
2018-10-21T12:34:47.805Z,6.35
2018-10-21T12:39:44.619Z,5.83
2018-10-21T12:44:41.396Z,5.65
2018-10-21T12:49:38.175Z,5.62
2018-10-21T12:54:34.997Z,4.85
2018-10-21T12:59:31.770Z,5.60
2018-10-21T13:04:28.554Z,6.05
2018-10-21T13:09:25.314Z,5.58
2018-10-21T13:14:22.116Z,5.22
2018-10-21T13:19:18.874Z,5.08
2018-10-21T13:24:15.620Z,4.70
2018-10-21T13:29:12.499Z,5.58
2018-10-21T13:34:09.277Z,6.47
2018-10-21T13:39:07.283Z,5.92
2018-10-21T13:44:04.023Z,5.45
2018-10-21T13:49:00.925Z,5.55
2018-10-21T13:53:57.597Z,5.75
2018-10-21T13:58:54.445Z,5.03
2018-10-21T14:03:51.984Z,4.80
2018-10-21T14:08:48.891Z,4.90
2018-10-21T14:13:45.702Z,5.80
2018-10-21T14:18:42.510Z,5.03
2018-10-21T14:23:39.166Z,4.90
2018-10-21T14:28:36.230Z,4.95
2018-10-21T14:33:33.293Z,4.92
2018-10-21T14:38:30.160Z,5.08
2018-10-21T14:43:28.257Z,4.30
2018-10-21T14:48:25.274Z,4.53
2018-10-21T14:53:22.049Z,4.87
2018-10-21T14:58:18.863Z,6.13
2018-10-21T15:03:15.638Z,5.37
2018-10-21T15:08:12.736Z,4.90
2018-10-21T15:13:09.413Z,5.10
2018-10-21T15:18:06.140Z,5.10
2018-10-21T15:23:02.880Z,4.67
2018-10-21T15:27:59.592Z,4.80
2018-10-21T15:32:56.537Z,4.60
2018-10-21T15:37:53.267Z,5.80
2018-10-21T15:42:50.095Z,4.90
2018-10-21T15:47:46.888Z,4.50
2018-10-21T15:52:44.709Z,4.83
2018-10-21T15:57:41.733Z,4.03
2018-10-21T16:02:38.627Z,3.70
2018-10-21T16:07:35.475Z,3.83
2018-10-21T16:12:32.258Z,3.90
2018-10-21T16:17:29.031Z,4.33
2018-10-21T16:22:25.821Z,4.17
2018-10-21T16:27:22.555Z,3.73
2018-10-21T16:32:19.370Z,5.87
2018-10-21T16:37:16.174Z,7.10
2018-10-21T16:42:12.846Z,4.60
2018-10-21T16:47:09.552Z,4.67
2018-10-21T16:52:06.295Z,4.10
2018-10-21T16:57:03.074Z,4.27
2018-10-21T17:01:59.832Z,3.90
2018-10-21T17:06:56.772Z,3.77
2018-10-21T17:11:53.525Z,3.80
2018-10-21T17:16:50.387Z,4.03
2018-10-21T17:21:47.142Z,4.00
2018-10-21T17:26:43.913Z,4.30
2018-10-21T17:31:40.643Z,4.10
2018-10-21T17:36:37.388Z,4.20
2018-10-21T17:41:34.036Z,4.30
2018-10-21T17:46:30.993Z,4.50
2018-10-21T17:51:27.678Z,5.47
2018-10-21T17:56:24.387Z,5.23
2018-10-21T18:01:21.229Z,5.27
2018-10-21T18:06:17.953Z,5.13
2018-10-21T18:11:14.689Z,5.93
2018-10-21T18:16:11.534Z,5.97
2018-10-21T18:21:08.206Z,6.50
2018-10-21T18:26:04.955Z,6.80
2018-10-21T18:31:01.721Z,5.17
2018-10-21T18:35:58.419Z,5.73
2018-10-21T18:40:55.203Z,4.90
2018-10-21T18:45:51.998Z,5.07
2018-10-21T18:50:48.733Z,5.47
2018-10-21T18:55:45.475Z,11.90
2018-10-21T19:00:42.514Z,9.27
2018-10-21T19:05:39.242Z,7.90
2018-10-21T19:10:36.004Z,12.47
2018-10-21T19:15:32.759Z,13.10
2018-10-21T19:20:29.768Z,6.83
2018-10-21T19:25:26.680Z,9.50
2018-10-21T19:30:23.505Z,6.47
2018-10-21T19:35:20.293Z,7.47
2018-10-21T19:40:17.063Z,9.00
2018-10-21T19:45:14.335Z,8.03
2018-10-21T19:50:12.454Z,12.43
2018-10-21T19:55:09.579Z,14.97
2018-10-21T20:00:07.377Z,13.00
2018-10-21T20:05:04.510Z,9.43
2018-10-21T20:10:01.286Z,7.53
2018-10-21T20:14:57.950Z,6.43
2018-10-21T20:19:54.623Z,6.87
2018-10-21T20:24:51.292Z,7.03
2018-10-21T20:29:48.008Z,6.83
2018-10-21T20:34:44.746Z,6.77
2018-10-21T20:39:41.600Z,7.87
2018-10-21T20:44:38.313Z,10.03
2018-10-21T20:49:35.034Z,10.47
2018-10-21T20:54:37.376Z,7.57
2018-10-21T20:59:34.210Z,8.23
2018-10-21T21:04:30.931Z,10.93
2018-10-21T21:09:27.684Z,9.83
2018-10-21T21:14:24.369Z,12.27
2018-10-21T21:19:21.117Z,12.63
2018-10-21T21:24:18.055Z,8.07
2018-10-21T21:29:14.742Z,7.87
2018-10-21T21:34:11.488Z,6.90
2018-10-21T21:39:09.985Z,7.17
2018-10-21T21:44:07.234Z,7.20
2018-10-21T21:49:04.335Z,7.00
2018-10-21T21:54:01.133Z,7.53
2018-10-21T21:58:57.850Z,7.30
2018-10-21T22:03:54.570Z,7.10
2018-10-21T22:08:51.275Z,6.47
2018-10-21T22:13:47.975Z,7.43
2018-10-21T22:18:44.676Z,6.50
2018-10-21T22:23:41.425Z,7.70
2018-10-21T22:28:38.130Z,6.93
2018-10-21T22:33:34.845Z,7.90
2018-10-21T22:38:31.572Z,7.40
2018-10-21T22:43:28.391Z,8.50
2018-10-21T22:48:25.125Z,8.27
2018-10-21T22:53:21.866Z,8.37
2018-10-21T22:58:18.647Z,7.83
2018-10-21T23:03:15.269Z,7.40
2018-10-21T23:08:12.201Z,7.03
2018-10-21T23:13:08.957Z,8.13
2018-10-21T23:18:05.668Z,8.00
2018-10-21T23:23:02.356Z,7.57
2018-10-21T23:27:59.144Z,8.00
2018-10-21T23:32:55.780Z,8.03
2018-10-21T23:37:52.500Z,8.30
2018-10-21T23:42:49.252Z,7.73
2018-10-21T23:47:45.933Z,7.60
2018-10-21T23:52:42.644Z,7.50
2018-10-21T23:57:39.299Z,7.97
